Gas Grouper — V7TZ2 — position and weather

sailwx.info

Track history (hours):
 
Tides and Currents Weather Stations Pressure Air Temp Water Temp Dewpoint Dewpoint Depression Visibility Wind Speed Wind Dir Waves Ship Positions

Gas Grouper

Last reported at 2014-Oct-19 19:32 UTC. Time now 2014-Oct-20 04:23 UTC.
Position N 36°37' W 000°55'.

Length 174 m; draft 10.4 m.

Type: Tanker. MMSI: 538003910.

Date/timePositionNaut miles runAvg speedWind from/ knotsBaromVisibWave heightAir tempDewpointWater temp
2014-Oct-19 19:32N 36°37' W 000°55'34315.4
2014-Oct-18 21:20N 37°35' E 006°08'5514.3
2014-Oct-18 17:29N 37°36' E 007°17'1715.3
2014-Oct-18 16:22N 37°37' E 007°39'1315.0
2014-Oct-18 15:30N 37°37' E 007°56'1515.5
2014-Oct-18 14:33N 37°37' E 008°14'1615.7
2014-Oct-18 13:33N 37°36' E 008°34'1515.3
2014-Oct-18 12:33N 37°37' E 008°53'1515.1
2014-Oct-18 11:33N 37°37' E 009°12'1615.3
2014-Oct-18 10:29N 37°38' E 009°33'1414.8
2014-Oct-18 09:32N 37°38' E 009°50'1313.4
2014-Oct-18 08:33N 37°38' E 010°07'1414.5
2014-Oct-18 07:33N 37°37' E 010°25'1514.9
2014-Oct-18 06:33N 37°33' E 010°43'9615.6
2014-Oct-18 00:22N 36°53' E 012°33'1316.0
2014-Oct-17 23:34N 36°47' E 012°47'1616.1
2014-Oct-17 22:33N 36°42' E 013°07'1616.3
2014-Oct-17 21:33N 36°36' E 013°25'1616.1
2014-Oct-17 20:33N 36°31' E 013°45'1615.9
2014-Oct-17 19:33N 36°27' E 014°04'1615.5
2014-Oct-17 18:33N 36°23' E 014°22'1515.2
2014-Oct-17 17:33N 36°19' E 014°40'1514.9
2014-Oct-17 16:33N 36°14' E 014°58'1514.9
2014-Oct-17 15:34N 36°10' E 015°16'34715.0
2014-Oct-16 16:26N 36°00' E 022°25'2814.9
2014-Oct-16 14:33N 36°00' E 023°00'1414.1
2014-Oct-16 13:33N 36°08' E 023°15'1514.9
2014-Oct-16 12:33N 36°18' E 023°28'1515.3
2014-Oct-16 11:33N 36°29' E 023°41'1615.7
2014-Oct-16 10:34N 36°41' E 023°54'1615.9
2014-Oct-16 09:33N 36°55' E 024°04'1515.5
2014-Oct-16 08:34N 37°10' E 024°09'1815.6
2014-Oct-16 07:24N 37°26' E 024°19'1315.8
2014-Oct-16 06:33N 37°37' E 024°28'1615.7
2014-Oct-16 05:33N 37°52' E 024°34'2813.9
2014-Oct-16 03:33N 38°18' E 024°48'11115.9
2014-Oct-15 20:33N 39°57' E 025°53'  
2014-Oct-12 07:20N 46°31' E 030°59'0 0.0
2014-Oct-12 06:20N 46°31' E 030°59'0 0.0
2014-Oct-12 05:08N 46°31' E 030°59'0 0.0
2014-Oct-12 02:26N 46°31' E 030°59'0 0.0
2014-Oct-11 23:08N 46°31' E 030°59'0 0.0
2014-Oct-11 22:32N 46°31' E 030°59'0 0.0
2014-Oct-11 21:20N 46°31' E 030°59'0 0.0
2014-Oct-11 20:14N 46°31' E 030°59'0 0.0
2014-Oct-11 19:32N 46°31' E 030°59'0 0.0
2014-Oct-11 18:26N 46°31' E 030°59'0 0.0
2014-Oct-11 17:08N 46°31' E 030°59'0 0.0
2014-Oct-11 08:32N 46°31' E 030°59'0 0.0
2014-Oct-11 07:32N 46°31' E 030°59'0 0.0
2014-Oct-11 06:32N 46°31' E 030°59'0 0.0
2014-Oct-11 05:32N 46°31' E 030°59'0 0.0
2014-Oct-11 04:32N 46°31' E 030°59'0 0.0
2014-Oct-11 03:32N 46°31' E 030°59'0 0.0
2014-Oct-11 02:32N 46°31' E 030°59'0 0.0
2014-Oct-11 01:32N 46°31' E 030°59'0 0.0
2014-Oct-11 00:32N 46°31' E 030°59'0 0.0
2014-Oct-10 23:32N 46°31' E 030°59'0 0.0
2014-Oct-10 22:26N 46°31' E 030°59'  
Track history (hours):
 
Tides and Currents Weather Stations Pressure Air Temp Water Temp Dewpoint Dewpoint Depression Visibility Wind Speed Wind Dir Waves Ship Positions

Gas Grouper

Last reported at 2014-Oct-19 19:32 UTC. Time now 2014-Oct-20 04:23 UTC.
Position N 36°37' W 000°55'.

Length 174 m; draft 10.4 m.

Type: Tanker. MMSI: 538003910.

Date/timePositionNaut miles runAvg speedWind from/ knotsBaromVisibWave heightAir tempDewpointWater temp
2014-Oct-19 19:32N 36°37' W 000°55'34315.4
2014-Oct-18 21:20N 37°35' E 006°08'5514.3
2014-Oct-18 17:29N 37°36' E 007°17'1715.3
2014-Oct-18 16:22N 37°37' E 007°39'1315.0
2014-Oct-18 15:30N 37°37' E 007°56'1515.5
2014-Oct-18 14:33N 37°37' E 008°14'1615.7
2014-Oct-18 13:33N 37°36' E 008°34'1515.3
2014-Oct-18 12:33N 37°37' E 008°53'1515.1
2014-Oct-18 11:33N 37°37' E 009°12'1615.3
2014-Oct-18 10:29N 37°38' E 009°33'1414.8
2014-Oct-18 09:32N 37°38' E 009°50'1313.4
2014-Oct-18 08:33N 37°38' E 010°07'1414.5
2014-Oct-18 07:33N 37°37' E 010°25'1514.9
2014-Oct-18 06:33N 37°33' E 010°43'9615.6
2014-Oct-18 00:22N 36°53' E 012°33'1316.0
2014-Oct-17 23:34N 36°47' E 012°47'1616.1
2014-Oct-17 22:33N 36°42' E 013°07'1616.3
2014-Oct-17 21:33N 36°36' E 013°25'1616.1
2014-Oct-17 20:33N 36°31' E 013°45'1615.9
2014-Oct-17 19:33N 36°27' E 014°04'1615.5
2014-Oct-17 18:33N 36°23' E 014°22'1515.2
2014-Oct-17 17:33N 36°19' E 014°40'1514.9
2014-Oct-17 16:33N 36°14' E 014°58'1514.9
2014-Oct-17 15:34N 36°10' E 015°16'34715.0
2014-Oct-16 16:26N 36°00' E 022°25'2814.9
2014-Oct-16 14:33N 36°00' E 023°00'1414.1
2014-Oct-16 13:33N 36°08' E 023°15'1514.9
2014-Oct-16 12:33N 36°18' E 023°28'1515.3
2014-Oct-16 11:33N 36°29' E 023°41'1615.7
2014-Oct-16 10:34N 36°41' E 023°54'1615.9
2014-Oct-16 09:33N 36°55' E 024°04'1515.5
2014-Oct-16 08:34N 37°10' E 024°09'1815.6
2014-Oct-16 07:24N 37°26' E 024°19'1315.8
2014-Oct-16 06:33N 37°37' E 024°28'1615.7
2014-Oct-16 05:33N 37°52' E 024°34'2813.9
2014-Oct-16 03:33N 38°18' E 024°48'11115.9
2014-Oct-15 20:33N 39°57' E 025°53'  
2014-Oct-12 07:20N 46°31' E 030°59'0 0.0
2014-Oct-12 06:20N 46°31' E 030°59'0 0.0
2014-Oct-12 05:08N 46°31' E 030°59'0 0.0
2014-Oct-12 02:26N 46°31' E 030°59'0 0.0
2014-Oct-11 23:08N 46°31' E 030°59'0 0.0
2014-Oct-11 22:32N 46°31' E 030°59'0 0.0
2014-Oct-11 21:20N 46°31' E 030°59'0 0.0
2014-Oct-11 20:14N 46°31' E 030°59'0 0.0
2014-Oct-11 19:32N 46°31' E 030°59'0 0.0
2014-Oct-11 18:26N 46°31' E 030°59'0 0.0
2014-Oct-11 17:08N 46°31' E 030°59'0 0.0
2014-Oct-11 08:32N 46°31' E 030°59'0 0.0
2014-Oct-11 07:32N 46°31' E 030°59'0 0.0
2014-Oct-11 06:32N 46°31' E 030°59'0 0.0
2014-Oct-11 05:32N 46°31' E 030°59'0 0.0
2014-Oct-11 04:32N 46°31' E 030°59'0 0.0
2014-Oct-11 03:32N 46°31' E 030°59'0 0.0
2014-Oct-11 02:32N 46°31' E 030°59'0 0.0
2014-Oct-11 01:32N 46°31' E 030°59'0 0.0
2014-Oct-11 00:32N 46°31' E 030°59'0 0.0
2014-Oct-10 23:32N 46°31' E 030°59'0 0.0
2014-Oct-10 22:26N 46°31' E 030°59'  

Dump ship's entire track history